sensor_id;sensor_type;location;lat;lon;timestamp;P1;durP1;ratioP1;P2;durP2;ratioP2
24335;SDS011;33098;52.400;16.880;2023-05-10T00:00:17;10.70;;;5.60;;
24335;SDS011;33098;52.400;16.880;2023-05-10T00:03:04;13.90;;;6.70;;
24335;SDS011;33098;52.400;16.880;2023-05-10T00:05:31;9.50;;;5.60;;
24335;SDS011;33098;52.400;16.880;2023-05-10T00:07:58;11.20;;;5.60;;
24335;SDS011;33098;52.400;16.880;2023-05-10T00:10:28;10.50;;;6.20;;
24335;SDS011;33098;52.400;16.880;2023-05-10T00:12:58;8.00;;;5.80;;
24335;SDS011;33098;52.400;16.880;2023-05-10T00:15:24;8.50;;;5.70;;
24335;SDS011;33098;52.400;16.880;2023-05-10T00:17:56;9.00;;;5.30;;
24335;SDS011;33098;52.400;16.880;2023-05-10T00:20:26;12.50;;;5.80;;
24335;SDS011;33098;52.400;16.880;2023-05-10T00:22:53;11.00;;;5.60;;
24335;SDS011;33098;52.400;16.880;2023-05-10T00:25:20;11.20;;;5.50;;
24335;SDS011;33098;52.400;16.880;2023-05-10T00:27:47;10.00;;;5.60;;
24335;SDS011;33098;52.400;16.880;2023-05-10T00:30:14;7.10;;;5.00;;
24335;SDS011;33098;52.400;16.880;2023-05-10T00:32:41;8.10;;;5.30;;
24335;SDS011;33098;52.400;16.880;2023-05-10T00:35:09;8.80;;;5.00;;
24335;SDS011;33098;52.400;16.880;2023-05-10T00:37:39;7.00;;;5.30;;
24335;SDS011;33098;52.400;16.880;2023-05-10T00:40:06;10.50;;;5.30;;
24335;SDS011;33098;52.400;16.880;2023-05-10T00:42:33;9.60;;;5.80;;
24335;SDS011;33098;52.400;16.880;2023-05-10T00:45:02;9.40;;;5.20;;
24335;SDS011;33098;52.400;16.880;2023-05-10T00:47:30;8.00;;;4.90;;
24335;SDS011;33098;52.400;16.880;2023-05-10T00:49:58;6.90;;;5.10;;
24335;SDS011;33098;52.400;16.880;2023-05-10T00:52:27;8.10;;;4.80;;
24335;SDS011;33098;52.400;16.880;2023-05-10T00:54:54;6.20;;;4.50;;
24335;SDS011;33098;52.400;16.880;2023-05-10T00:57:23;9.40;;;4.90;;
24335;SDS011;33098;52.400;16.880;2023-05-10T00:59:53;6.80;;;4.80;;
24335;SDS011;33098;52.400;16.880;2023-05-10T01:02:20;7.30;;;4.80;;
24335;SDS011;33098;52.400;16.880;2023-05-10T01:04:53;6.80;;;5.20;;
24335;SDS011;33098;52.400;16.880;2023-05-10T01:07:23;10.10;;;5.10;;
24335;SDS011;33098;52.400;16.880;2023-05-10T01:09:50;9.60;;;5.20;;
24335;SDS011;33098;52.400;16.880;2023-05-10T01:12:18;9.10;;;5.40;;
24335;SDS011;33098;52.400;16.880;2023-05-10T01:14:45;10.40;;;5.50;;
24335;SDS011;33098;52.400;16.880;2023-05-10T01:17:22;9.00;;;5.00;;
24335;SDS011;33098;52.400;16.880;2023-05-10T01:19:49;8.90;;;5.40;;
24335;SDS011;33098;52.400;16.880;2023-05-10T01:25:19;7.20;;;4.80;;
24335;SDS011;33098;52.400;16.880;2023-05-10T01:36:55;10.00;;;5.10;;
24335;SDS011;33098;52.400;16.880;2023-05-10T01:42:19;7.60;;;5.20;;
24335;SDS011;33098;52.400;16.880;2023-05-10T01:50:39;6.70;;;5.10;;
24335;SDS011;33098;52.400;16.880;2023-05-10T01:53:11;8.30;;;5.10;;
24335;SDS011;33098;52.400;16.880;2023-05-10T01:55:44;9.50;;;5.20;;
24335;SDS011;33098;52.400;16.880;2023-05-10T01:58:17;8.90;;;5.50;;
24335;SDS011;33098;52.400;16.880;2023-05-10T02:00:49;7.40;;;4.90;;
24335;SDS011;33098;52.400;16.880;2023-05-10T02:03:20;8.90;;;5.20;;
24335;SDS011;33098;52.400;16.880;2023-05-10T02:05:49;9.00;;;5.40;;
24335;SDS011;33098;52.400;16.880;2023-05-10T02:08:23;8.20;;;5.10;;
24335;SDS011;33098;52.400;16.880;2023-05-10T02:10:52;9.60;;;5.10;;
24335;SDS011;33098;52.400;16.880;2023-05-10T02:13:21;8.50;;;5.00;;
24335;SDS011;33098;52.400;16.880;2023-05-10T02:15:52;9.00;;;5.40;;
24335;SDS011;33098;52.400;16.880;2023-05-10T02:18:20;12.00;;;5.20;;
24335;SDS011;33098;52.400;16.880;2023-05-10T02:20:50;8.10;;;5.70;;
24335;SDS011;33098;52.400;16.880;2023-05-10T02:23:19;10.10;;;5.60;;
24335;SDS011;33098;52.400;16.880;2023-05-10T02:25:47;10.80;;;5.80;;
24335;SDS011;33098;52.400;16.880;2023-05-10T02:28:15;8.40;;;5.20;;
24335;SDS011;33098;52.400;16.880;2023-05-10T02:30:47;7.20;;;5.60;;
24335;SDS011;33098;52.400;16.880;2023-05-10T02:35:46;7.10;;;5.20;;
24335;SDS011;33098;52.400;16.880;2023-05-10T02:38:13;7.20;;;5.50;;
24335;SDS011;33098;52.400;16.880;2023-05-10T02:40:41;7.40;;;5.30;;
24335;SDS011;33098;52.400;16.880;2023-05-10T02:43:11;9.50;;;5.80;;
24335;SDS011;33098;52.400;16.880;2023-05-10T02:45:41;10.20;;;5.10;;
24335;SDS011;33098;52.400;16.880;2023-05-10T02:48:10;8.40;;;5.40;;
24335;SDS011;33098;52.400;16.880;2023-05-10T02:50:36;8.20;;;5.50;;
24335;SDS011;33098;52.400;16.880;2023-05-10T02:53:10;7.50;;;5.10;;
24335;SDS011;33098;52.400;16.880;2023-05-10T02:55:41;11.10;;;5.50;;
24335;SDS011;33098;52.400;16.880;2023-05-10T02:58:11;6.60;;;5.30;;
24335;SDS011;33098;52.400;16.880;2023-05-10T03:00:38;9.20;;;5.30;;
24335;SDS011;33098;52.400;16.880;2023-05-10T03:03:04;8.00;;;4.90;;
24335;SDS011;33098;52.400;16.880;2023-05-10T03:05:33;11.30;;;5.50;;
24335;SDS011;33098;52.400;16.880;2023-05-10T03:08:01;7.90;;;5.50;;
24335;SDS011;33098;52.400;16.880;2023-05-10T03:10:30;8.30;;;5.30;;
24335;SDS011;33098;52.400;16.880;2023-05-10T03:18:56;8.10;;;5.50;;
24335;SDS011;33098;52.400;16.880;2023-05-10T03:21:25;11.20;;;5.10;;
24335;SDS011;33098;52.400;16.880;2023-05-10T03:23:58;8.20;;;5.40;;
24335;SDS011;33098;52.400;16.880;2023-05-10T03:26:31;8.00;;;5.30;;
24335;SDS011;33098;52.400;16.880;2023-05-10T03:29:07;8.80;;;5.20;;
24335;SDS011;33098;52.400;16.880;2023-05-10T03:31:45;11.40;;;5.20;;
24335;SDS011;33098;52.400;16.880;2023-05-10T03:34:22;10.70;;;5.60;;
24335;SDS011;33098;52.400;16.880;2023-05-10T03:36:52;9.20;;;5.60;;
24335;SDS011;33098;52.400;16.880;2023-05-10T03:39:19;11.10;;;5.90;;
24335;SDS011;33098;52.400;16.880;2023-05-10T03:41:57;9.30;;;5.10;;
24335;SDS011;33098;52.400;16.880;2023-05-10T03:44:25;9.40;;;5.50;;
24335;SDS011;33098;52.400;16.880;2023-05-10T03:46:52;8.30;;;5.90;;
24335;SDS011;33098;52.400;16.880;2023-05-10T03:49:18;7.10;;;5.70;;
24335;SDS011;33098;52.400;16.880;2023-05-10T03:51:45;7.10;;;5.40;;
24335;SDS011;33098;52.400;16.880;2023-05-10T03:54:12;8.60;;;5.70;;
24335;SDS011;33098;52.400;16.880;2023-05-10T03:56:39;12.40;;;5.60;;
24335;SDS011;33098;52.400;16.880;2023-05-10T03:59:06;10.10;;;5.80;;
24335;SDS011;33098;52.400;16.880;2023-05-10T04:01:36;9.20;;;5.80;;
24335;SDS011;33098;52.400;16.880;2023-05-10T04:04:03;6.40;;;5.00;;
24335;SDS011;33098;52.400;16.880;2023-05-10T04:06:31;8.90;;;5.80;;
24335;SDS011;33098;52.400;16.880;2023-05-10T04:08:58;8.80;;;5.80;;
24335;SDS011;33098;52.400;16.880;2023-05-10T04:11:27;11.80;;;5.90;;
24335;SDS011;33098;52.400;16.880;2023-05-10T04:13:54;9.40;;;5.60;;
24335;SDS011;33098;52.400;16.880;2023-05-10T04:16:21;8.70;;;5.90;;
24335;SDS011;33098;52.400;16.880;2023-05-10T04:18:47;11.10;;;6.50;;
24335;SDS011;33098;52.400;16.880;2023-05-10T04:21:15;7.60;;;5.60;;
24335;SDS011;33098;52.400;16.880;2023-05-10T04:23:42;8.30;;;5.10;;
24335;SDS011;33098;52.400;16.880;2023-05-10T04:26:16;12.10;;;6.00;;
24335;SDS011;33098;52.400;16.880;2023-05-10T04:28:45;9.30;;;5.30;;
24335;SDS011;33098;52.400;16.880;2023-05-10T04:31:21;10.40;;;5.90;;
24335;SDS011;33098;52.400;16.880;2023-05-10T04:33:48;8.50;;;5.40;;
24335;SDS011;33098;52.400;16.880;2023-05-10T04:36:16;9.10;;;5.90;;
24335;SDS011;33098;52.400;16.880;2023-05-10T04:38:46;9.30;;;5.80;;
24335;SDS011;33098;52.400;16.880;2023-05-10T04:41:13;8.90;;;5.50;;
24335;SDS011;33098;52.400;16.880;2023-05-10T04:43:40;10.70;;;5.90;;
24335;SDS011;33098;52.400;16.880;2023-05-10T04:46:08;8.10;;;5.70;;
24335;SDS011;33098;52.400;16.880;2023-05-10T04:48:34;10.70;;;5.90;;
24335;SDS011;33098;52.400;16.880;2023-05-10T04:51:01;10.50;;;5.80;;
24335;SDS011;33098;52.400;16.880;2023-05-10T04:53:32;11.50;;;5.90;;
24335;SDS011;33098;52.400;16.880;2023-05-10T04:55:59;10.90;;;6.20;;
24335;SDS011;33098;52.400;16.880;2023-05-10T04:58:26;9.20;;;5.80;;
24335;SDS011;33098;52.400;16.880;2023-05-10T05:00:53;8.90;;;5.90;;
24335;SDS011;33098;52.400;16.880;2023-05-10T05:03:19;11.40;;;6.00;;
24335;SDS011;33098;52.400;16.880;2023-05-10T05:05:48;9.80;;;6.00;;
24335;SDS011;33098;52.400;16.880;2023-05-10T05:08:17;11.30;;;5.50;;
24335;SDS011;33098;52.400;16.880;2023-05-10T05:10:47;11.60;;;5.70;;
24335;SDS011;33098;52.400;16.880;2023-05-10T05:13:16;8.90;;;5.60;;
24335;SDS011;33098;52.400;16.880;2023-05-10T05:15:43;12.00;;;5.80;;
24335;SDS011;33098;52.400;16.880;2023-05-10T05:18:09;11.30;;;6.10;;
24335;SDS011;33098;52.400;16.880;2023-05-10T05:23:07;11.70;;;6.10;;
24335;SDS011;33098;52.400;16.880;2023-05-10T05:25:33;9.40;;;5.70;;
24335;SDS011;33098;52.400;16.880;2023-05-10T05:28:00;9.60;;;6.80;;
24335;SDS011;33098;52.400;16.880;2023-05-10T05:30:31;12.20;;;6.40;;
24335;SDS011;33098;52.400;16.880;2023-05-10T05:32:57;9.60;;;5.90;;
24335;SDS011;33098;52.400;16.880;2023-05-10T05:35:27;9.90;;;5.80;;
24335;SDS011;33098;52.400;16.880;2023-05-10T05:37:54;10.50;;;6.00;;
24335;SDS011;33098;52.400;16.880;2023-05-10T05:40:24;9.80;;;6.00;;
24335;SDS011;33098;52.400;16.880;2023-05-10T05:42:51;12.60;;;6.30;;
24335;SDS011;33098;52.400;16.880;2023-05-10T05:45:18;12.40;;;5.90;;
24335;SDS011;33098;52.400;16.880;2023-05-10T05:47:54;13.50;;;6.30;;
24335;SDS011;33098;52.400;16.880;2023-05-10T05:50:21;10.60;;;5.90;;
24335;SDS011;33098;52.400;16.880;2023-05-10T05:52:51;9.30;;;6.00;;
24335;SDS011;33098;52.400;16.880;2023-05-10T05:55:18;11.10;;;6.20;;
24335;SDS011;33098;52.400;16.880;2023-05-10T05:57:44;10.80;;;5.60;;
24335;SDS011;33098;52.400;16.880;2023-05-10T06:00:12;13.10;;;6.50;;
24335;SDS011;33098;52.400;16.880;2023-05-10T06:02:45;11.80;;;7.00;;
24335;SDS011;33098;52.400;16.880;2023-05-10T06:05:12;8.50;;;5.30;;
24335;SDS011;33098;52.400;16.880;2023-05-10T06:07:42;9.70;;;5.80;;
24335;SDS011;33098;52.400;16.880;2023-05-10T06:10:09;9.00;;;6.00;;
24335;SDS011;33098;52.400;16.880;2023-05-10T06:12:39;9.80;;;6.00;;
24335;SDS011;33098;52.400;16.880;2023-05-10T06:15:08;10.20;;;5.90;;
24335;SDS011;33098;52.400;16.880;2023-05-10T06:17:35;10.90;;;5.80;;
24335;SDS011;33098;52.400;16.880;2023-05-10T06:20:05;15.40;;;6.20;;
24335;SDS011;33098;52.400;16.880;2023-05-10T06:22:39;12.50;;;5.80;;
24335;SDS011;33098;52.400;16.880;2023-05-10T06:25:08;11.00;;;6.20;;
24335;SDS011;33098;52.400;16.880;2023-05-10T06:27:37;9.50;;;5.70;;
24335;SDS011;33098;52.400;16.880;2023-05-10T06:30:04;14.30;;;6.00;;
24335;SDS011;33098;52.400;16.880;2023-05-10T06:32:32;9.60;;;5.80;;
24335;SDS011;33098;52.400;16.880;2023-05-10T06:34:58;8.40;;;5.80;;
24335;SDS011;33098;52.400;16.880;2023-05-10T06:37:25;13.40;;;5.50;;
24335;SDS011;33098;52.400;16.880;2023-05-10T06:39:53;8.80;;;5.90;;
24335;SDS011;33098;52.400;16.880;2023-05-10T06:42:22;13.40;;;5.90;;
24335;SDS011;33098;52.400;16.880;2023-05-10T06:44:53;9.50;;;5.60;;
24335;SDS011;33098;52.400;16.880;2023-05-10T06:47:19;10.70;;;5.80;;
24335;SDS011;33098;52.400;16.880;2023-05-10T06:49:47;8.70;;;5.70;;
24335;SDS011;33098;52.400;16.880;2023-05-10T06:52:16;11.30;;;5.20;;
24335;SDS011;33098;52.400;16.880;2023-05-10T06:54:43;8.80;;;5.20;;
24335;SDS011;33098;52.400;16.880;2023-05-10T06:59:40;7.60;;;5.20;;
24335;SDS011;33098;52.400;16.880;2023-05-10T07:02:09;7.70;;;5.00;;
24335;SDS011;33098;52.400;16.880;2023-05-10T07:04:37;7.80;;;5.40;;
24335;SDS011;33098;52.400;16.880;2023-05-10T07:07:04;8.50;;;5.40;;
24335;SDS011;33098;52.400;16.880;2023-05-10T07:09:31;11.10;;;4.90;;
24335;SDS011;33098;52.400;16.880;2023-05-10T07:12:00;11.60;;;5.60;;
24335;SDS011;33098;52.400;16.880;2023-05-10T07:14:28;8.50;;;4.60;;
24335;SDS011;33098;52.400;16.880;2023-05-10T07:16:54;12.00;;;5.50;;
24335;SDS011;33098;52.400;16.880;2023-05-10T07:19:23;11.20;;;5.10;;
24335;SDS011;33098;52.400;16.880;2023-05-10T07:21:53;10.10;;;4.50;;
24335;SDS011;33098;52.400;16.880;2023-05-10T07:24:19;7.50;;;4.80;;
24335;SDS011;33098;52.400;16.880;2023-05-10T07:26:46;8.90;;;4.50;;
24335;SDS011;33098;52.400;16.880;2023-05-10T07:29:13;8.90;;;5.10;;
24335;SDS011;33098;52.400;16.880;2023-05-10T07:31:40;6.40;;;4.80;;
24335;SDS011;33098;52.400;16.880;2023-05-10T07:34:08;6.30;;;4.20;;
24335;SDS011;33098;52.400;16.880;2023-05-10T07:36:35;8.80;;;4.70;;
24335;SDS011;33098;52.400;16.880;2023-05-10T07:39:02;7.40;;;4.30;;
24335;SDS011;33098;52.400;16.880;2023-05-10T07:41:29;9.10;;;4.30;;
24335;SDS011;33098;52.400;16.880;2023-05-10T07:43:56;8.20;;;4.40;;
24335;SDS011;33098;52.400;16.880;2023-05-10T07:46:23;13.10;;;5.00;;
24335;SDS011;33098;52.400;16.880;2023-05-10T07:48:58;11.50;;;4.40;;
24335;SDS011;33098;52.400;16.880;2023-05-10T07:51:25;12.90;;;5.90;;
24335;SDS011;33098;52.400;16.880;2023-05-10T07:53:52;10.10;;;4.50;;
24335;SDS011;33098;52.400;16.880;2023-05-10T07:56:20;10.60;;;5.70;;
24335;SDS011;33098;52.400;16.880;2023-05-10T07:58:53;9.60;;;4.70;;
24335;SDS011;33098;52.400;16.880;2023-05-10T08:01:23;6.90;;;4.20;;
24335;SDS011;33098;52.400;16.880;2023-05-10T08:03:51;7.50;;;4.00;;
24335;SDS011;33098;52.400;16.880;2023-05-10T08:06:19;6.60;;;4.30;;
24335;SDS011;33098;52.400;16.880;2023-05-10T08:08:47;5.20;;;4.10;;
24335;SDS011;33098;52.400;16.880;2023-05-10T08:11:18;5.60;;;4.00;;
24335;SDS011;33098;52.400;16.880;2023-05-10T08:13:47;8.10;;;4.30;;
24335;SDS011;33098;52.400;16.880;2023-05-10T08:16:16;5.80;;;4.40;;
24335;SDS011;33098;52.400;16.880;2023-05-10T08:18:44;7.30;;;4.00;;
24335;SDS011;33098;52.400;16.880;2023-05-10T08:21:13;7.70;;;4.20;;
24335;SDS011;33098;52.400;16.880;2023-05-10T08:23:43;9.50;;;4.40;;
24335;SDS011;33098;52.400;16.880;2023-05-10T08:26:10;7.50;;;4.20;;
24335;SDS011;33098;52.400;16.880;2023-05-10T08:28:37;6.90;;;4.40;;
24335;SDS011;33098;52.400;16.880;2023-05-10T08:31:04;6.20;;;4.20;;
24335;SDS011;33098;52.400;16.880;2023-05-10T08:33:31;6.00;;;3.60;;
24335;SDS011;33098;52.400;16.880;2023-05-10T08:36:03;5.80;;;4.30;;
24335;SDS011;33098;52.400;16.880;2023-05-10T08:38:32;5.50;;;3.80;;
24335;SDS011;33098;52.400;16.880;2023-05-10T08:41:02;7.30;;;3.70;;
24335;SDS011;33098;52.400;16.880;2023-05-10T08:43:39;5.80;;;3.50;;
24335;SDS011;33098;52.400;16.880;2023-05-10T08:46:08;4.80;;;3.30;;
24335;SDS011;33098;52.400;16.880;2023-05-10T08:48:45;8.00;;;3.80;;
24335;SDS011;33098;52.400;16.880;2023-05-10T08:51:19;6.50;;;4.00;;
24335;SDS011;33098;52.400;16.880;2023-05-10T08:53:50;6.70;;;3.60;;
24335;SDS011;33098;52.400;16.880;2023-05-10T08:56:20;6.00;;;3.30;;
24335;SDS011;33098;52.400;16.880;2023-05-10T08:58:50;7.80;;;2.90;;
24335;SDS011;33098;52.400;16.880;2023-05-10T09:01:21;6.00;;;2.90;;
24335;SDS011;33098;52.400;16.880;2023-05-10T09:03:47;5.30;;;2.80;;
24335;SDS011;33098;52.400;16.880;2023-05-10T09:06:23;7.50;;;2.70;;
24335;SDS011;33098;52.400;16.880;2023-05-10T09:08:50;5.90;;;2.40;;
24335;SDS011;33098;52.400;16.880;2023-05-10T09:11:20;5.50;;;2.60;;
24335;SDS011;33098;52.400;16.880;2023-05-10T09:13:56;3.50;;;2.60;;
24335;SDS011;33098;52.400;16.880;2023-05-10T09:16:23;11.10;;;2.80;;
24335;SDS011;33098;52.400;16.880;2023-05-10T09:18:50;7.30;;;2.70;;
24335;SDS011;33098;52.400;16.880;2023-05-10T09:21:17;8.30;;;2.90;;
24335;SDS011;33098;52.400;16.880;2023-05-10T09:23:46;4.60;;;2.60;;
24335;SDS011;33098;52.400;16.880;2023-05-10T09:26:16;6.20;;;2.50;;
24335;SDS011;33098;52.400;16.880;2023-05-10T09:28:55;5.20;;;3.10;;
24335;SDS011;33098;52.400;16.880;2023-05-10T09:31:23;14.60;;;3.30;;
24335;SDS011;33098;52.400;16.880;2023-05-10T09:33:52;3.20;;;2.10;;
24335;SDS011;33098;52.400;16.880;2023-05-10T09:38:52;5.00;;;2.70;;
24335;SDS011;33098;52.400;16.880;2023-05-10T09:41:25;5.30;;;2.50;;
24335;SDS011;33098;52.400;16.880;2023-05-10T09:43:55;8.70;;;2.40;;
24335;SDS011;33098;52.400;16.880;2023-05-10T09:46:23;5.90;;;2.20;;
24335;SDS011;33098;52.400;16.880;2023-05-10T09:48:55;2.90;;;2.00;;
24335;SDS011;33098;52.400;16.880;2023-05-10T09:51:25;8.20;;;2.30;;
24335;SDS011;33098;52.400;16.880;2023-05-10T09:54:10;3.20;;;2.00;;
24335;SDS011;33098;52.400;16.880;2023-05-10T09:56:44;4.40;;;2.40;;
24335;SDS011;33098;52.400;16.880;2023-05-10T09:59:14;4.10;;;2.20;;
24335;SDS011;33098;52.400;16.880;2023-05-10T10:01:49;6.00;;;2.60;;
24335;SDS011;33098;52.400;16.880;2023-05-10T10:04:19;7.20;;;2.50;;
24335;SDS011;33098;52.400;16.880;2023-05-10T10:07:03;4.50;;;2.20;;
24335;SDS011;33098;52.400;16.880;2023-05-10T10:09:30;4.20;;;2.00;;
24335;SDS011;33098;52.400;16.880;2023-05-10T10:11:58;5.10;;;2.40;;
24335;SDS011;33098;52.400;16.880;2023-05-10T10:14:30;5.90;;;2.60;;
24335;SDS011;33098;52.400;16.880;2023-05-10T10:17:00;2.50;;;2.30;;
24335;SDS011;33098;52.400;16.880;2023-05-10T10:19:27;2.30;;;2.00;;
24335;SDS011;33098;52.400;16.880;2023-05-10T10:21:54;3.40;;;2.30;;
24335;SDS011;33098;52.400;16.880;2023-05-10T10:24:28;4.10;;;2.10;;
24335;SDS011;33098;52.400;16.880;2023-05-10T10:27:09;5.50;;;2.00;;
24335;SDS011;33098;52.400;16.880;2023-05-10T10:30:06;3.10;;;2.10;;
24335;SDS011;33098;52.400;16.880;2023-05-10T10:36:02;3.30;;;2.10;;
24335;SDS011;33098;52.400;16.880;2023-05-10T10:38:36;5.80;;;2.40;;
24335;SDS011;33098;52.400;16.880;2023-05-10T10:49:32;3.80;;;2.00;;
24335;SDS011;33098;52.400;16.880;2023-05-10T10:57:52;2.80;;;2.20;;
24335;SDS011;33098;52.400;16.880;2023-05-10T11:00:30;2.50;;;1.90;;
24335;SDS011;33098;52.400;16.880;2023-05-10T11:03:11;6.80;;;2.40;;
24335;SDS011;33098;52.400;16.880;2023-05-10T11:05:49;15.20;;;2.70;;
24335;SDS011;33098;52.400;16.880;2023-05-10T11:08:21;5.90;;;2.10;;
24335;SDS011;33098;52.400;16.880;2023-05-10T11:13:28;7.30;;;2.10;;
24335;SDS011;33098;52.400;16.880;2023-05-10T11:15:56;5.20;;;2.50;;
24335;SDS011;33098;52.400;16.880;2023-05-10T11:18:26;4.90;;;2.20;;
24335;SDS011;33098;52.400;16.880;2023-05-10T11:21:01;3.40;;;2.20;;
24335;SDS011;33098;52.400;16.880;2023-05-10T11:23:32;2.90;;;2.00;;
24335;SDS011;33098;52.400;16.880;2023-05-10T11:26:32;3.20;;;2.10;;
24335;SDS011;33098;52.400;16.880;2023-05-10T11:29:12;4.50;;;2.10;;
24335;SDS011;33098;52.400;16.880;2023-05-10T11:31:44;6.00;;;2.40;;
24335;SDS011;33098;52.400;16.880;2023-05-10T11:34:30;4.20;;;2.20;;
24335;SDS011;33098;52.400;16.880;2023-05-10T11:37:04;3.30;;;2.40;;
24335;SDS011;33098;52.400;16.880;2023-05-10T11:39:30;3.60;;;2.10;;
24335;SDS011;33098;52.400;16.880;2023-05-10T11:42:04;8.80;;;2.40;;
24335;SDS011;33098;52.400;16.880;2023-05-10T11:44:37;3.70;;;2.70;;
24335;SDS011;33098;52.400;16.880;2023-05-10T11:49:31;5.20;;;2.50;;
24335;SDS011;33098;52.400;16.880;2023-05-10T11:52:05;5.80;;;2.50;;
24335;SDS011;33098;52.400;16.880;2023-05-10T11:54:33;6.00;;;2.50;;
24335;SDS011;33098;52.400;16.880;2023-05-10T11:57:06;4.10;;;2.30;;
24335;SDS011;33098;52.400;16.880;2023-05-10T11:59:38;3.40;;;2.20;;
24335;SDS011;33098;52.400;16.880;2023-05-10T12:02:08;3.60;;;2.40;;
24335;SDS011;33098;52.400;16.880;2023-05-10T12:04:40;6.50;;;2.50;;
24335;SDS011;33098;52.400;16.880;2023-05-10T12:07:08;5.90;;;2.60;;
24335;SDS011;33098;52.400;16.880;2023-05-10T12:09:42;3.60;;;2.40;;
24335;SDS011;33098;52.400;16.880;2023-05-10T12:12:17;4.60;;;2.40;;
24335;SDS011;33098;52.400;16.880;2023-05-10T12:14:43;5.80;;;2.50;;
24335;SDS011;33098;52.400;16.880;2023-05-10T12:17:13;4.00;;;2.50;;
24335;SDS011;33098;52.400;16.880;2023-05-10T12:19:41;2.50;;;2.20;;
24335;SDS011;33098;52.400;16.880;2023-05-10T12:22:15;4.60;;;2.50;;
24335;SDS011;33098;52.400;16.880;2023-05-10T12:24:50;3.30;;;2.20;;
24335;SDS011;33098;52.400;16.880;2023-05-10T12:27:17;4.10;;;2.70;;
24335;SDS011;33098;52.400;16.880;2023-05-10T12:29:43;4.70;;;2.70;;
24335;SDS011;33098;52.400;16.880;2023-05-10T12:32:10;4.80;;;2.30;;
24335;SDS011;33098;52.400;16.880;2023-05-10T12:34:37;5.00;;;2.70;;
24335;SDS011;33098;52.400;16.880;2023-05-10T12:37:04;2.50;;;2.10;;
24335;SDS011;33098;52.400;16.880;2023-05-10T12:39:41;5.30;;;2.60;;
24335;SDS011;33098;52.400;16.880;2023-05-10T12:42:09;4.30;;;2.40;;
24335;SDS011;33098;52.400;16.880;2023-05-10T12:44:36;4.50;;;2.40;;
24335;SDS011;33098;52.400;16.880;2023-05-10T12:47:06;5.20;;;2.30;;
24335;SDS011;33098;52.400;16.880;2023-05-10T12:49:33;4.00;;;2.20;;
24335;SDS011;33098;52.400;16.880;2023-05-10T12:52:03;4.40;;;2.30;;
24335;SDS011;33098;52.400;16.880;2023-05-10T12:54:30;2.60;;;2.20;;
24335;SDS011;33098;52.400;16.880;2023-05-10T12:56:57;3.90;;;2.40;;
24335;SDS011;33098;52.400;16.880;2023-05-10T12:59:23;5.70;;;2.50;;
24335;SDS011;33098;52.400;16.880;2023-05-10T13:01:56;4.30;;;2.40;;
24335;SDS011;33098;52.400;16.880;2023-05-10T13:04:23;5.10;;;2.70;;
24335;SDS011;33098;52.400;16.880;2023-05-10T13:06:50;6.80;;;2.30;;
24335;SDS011;33098;52.400;16.880;2023-05-10T13:09:17;2.80;;;2.50;;
24335;SDS011;33098;52.400;16.880;2023-05-10T13:11:44;3.30;;;2.50;;
24335;SDS011;33098;52.400;16.880;2023-05-10T13:14:11;2.90;;;2.50;;
24335;SDS011;33098;52.400;16.880;2023-05-10T13:16:39;3.00;;;2.50;;
24335;SDS011;33098;52.400;16.880;2023-05-10T13:19:06;4.60;;;2.40;;
24335;SDS011;33098;52.400;16.880;2023-05-10T13:21:33;5.00;;;2.30;;
24335;SDS011;33098;52.400;16.880;2023-05-10T13:23:59;4.10;;;2.50;;
24335;SDS011;33098;52.400;16.880;2023-05-10T13:26:27;4.90;;;2.40;;
24335;SDS011;33098;52.400;16.880;2023-05-10T13:28:54;7.00;;;2.60;;
24335;SDS011;33098;52.400;16.880;2023-05-10T13:31:21;5.80;;;2.50;;
24335;SDS011;33098;52.400;16.880;2023-05-10T13:33:48;3.00;;;2.60;;
24335;SDS011;33098;52.400;16.880;2023-05-10T13:36:17;3.00;;;2.60;;
24335;SDS011;33098;52.400;16.880;2023-05-10T13:38:43;5.80;;;2.70;;
24335;SDS011;33098;52.400;16.880;2023-05-10T13:41:16;3.10;;;2.50;;
24335;SDS011;33098;52.400;16.880;2023-05-10T13:46:11;4.30;;;3.20;;
24335;SDS011;33098;52.400;16.880;2023-05-10T13:48:40;6.40;;;2.70;;
24335;SDS011;33098;52.400;16.880;2023-05-10T13:51:16;5.50;;;2.50;;
24335;SDS011;33098;52.400;16.880;2023-05-10T13:53:45;5.70;;;2.60;;
24335;SDS011;33098;52.400;16.880;2023-05-10T13:56:13;4.90;;;2.40;;
24335;SDS011;33098;52.400;16.880;2023-05-10T13:58:44;4.20;;;2.50;;
24335;SDS011;33098;52.400;16.880;2023-05-10T14:01:14;7.00;;;2.80;;
24335;SDS011;33098;52.400;16.880;2023-05-10T14:03:44;3.70;;;2.50;;
24335;SDS011;33098;52.400;16.880;2023-05-10T14:06:10;5.50;;;2.60;;
24335;SDS011;33098;52.400;16.880;2023-05-10T14:08:37;4.70;;;2.50;;
24335;SDS011;33098;52.400;16.880;2023-05-10T14:11:05;4.40;;;2.60;;
24335;SDS011;33098;52.400;16.880;2023-05-10T14:13:35;3.80;;;2.70;;
24335;SDS011;33098;52.400;16.880;2023-05-10T14:16:04;7.60;;;2.60;;
24335;SDS011;33098;52.400;16.880;2023-05-10T14:18:32;5.20;;;2.70;;
24335;SDS011;33098;52.400;16.880;2023-05-10T14:21:01;2.60;;;2.40;;
24335;SDS011;33098;52.400;16.880;2023-05-10T14:23:30;3.00;;;2.70;;
24335;SDS011;33098;52.400;16.880;2023-05-10T14:25:56;3.40;;;2.50;;
24335;SDS011;33098;52.400;16.880;2023-05-10T14:28:31;3.70;;;2.90;;
24335;SDS011;33098;52.400;16.880;2023-05-10T14:30:58;2.70;;;2.50;;
24335;SDS011;33098;52.400;16.880;2023-05-10T14:33:28;3.40;;;2.90;;
24335;SDS011;33098;52.400;16.880;2023-05-10T14:35:56;3.70;;;2.80;;
24335;SDS011;33098;52.400;16.880;2023-05-10T14:38:26;4.60;;;3.10;;
24335;SDS011;33098;52.400;16.880;2023-05-10T14:40:55;5.10;;;2.80;;
24335;SDS011;33098;52.400;16.880;2023-05-10T14:43:27;5.20;;;2.80;;
24335;SDS011;33098;52.400;16.880;2023-05-10T14:45:56;4.00;;;2.70;;
24335;SDS011;33098;52.400;16.880;2023-05-10T14:48:26;4.80;;;2.60;;
24335;SDS011;33098;52.400;16.880;2023-05-10T14:50:52;5.40;;;2.70;;
24335;SDS011;33098;52.400;16.880;2023-05-10T14:53:22;2.90;;;2.60;;
24335;SDS011;33098;52.400;16.880;2023-05-10T14:55:52;4.00;;;3.00;;
24335;SDS011;33098;52.400;16.880;2023-05-10T14:58:19;3.60;;;2.70;;
24335;SDS011;33098;52.400;16.880;2023-05-10T15:00:45;5.20;;;2.70;;
24335;SDS011;33098;52.400;16.880;2023-05-10T15:03:12;3.40;;;2.80;;
24335;SDS011;33098;52.400;16.880;2023-05-10T15:05:44;3.20;;;2.90;;
24335;SDS011;33098;52.400;16.880;2023-05-10T15:08:11;3.60;;;2.60;;
24335;SDS011;33098;52.400;16.880;2023-05-10T15:10:39;4.60;;;3.10;;
24335;SDS011;33098;52.400;16.880;2023-05-10T15:13:06;4.60;;;2.80;;
24335;SDS011;33098;52.400;16.880;2023-05-10T15:15:32;5.60;;;2.90;;
24335;SDS011;33098;52.400;16.880;2023-05-10T15:17:59;5.10;;;3.00;;
24335;SDS011;33098;52.400;16.880;2023-05-10T15:20:26;4.00;;;2.70;;
24335;SDS011;33098;52.400;16.880;2023-05-10T15:22:53;4.00;;;3.00;;
24335;SDS011;33098;52.400;16.880;2023-05-10T15:25:20;4.20;;;3.20;;
24335;SDS011;33098;52.400;16.880;2023-05-10T15:27:49;3.40;;;2.70;;
24335;SDS011;33098;52.400;16.880;2023-05-10T15:30:17;5.70;;;3.20;;
24335;SDS011;33098;52.400;16.880;2023-05-10T15:32:44;7.30;;;3.30;;
24335;SDS011;33098;52.400;16.880;2023-05-10T15:35:10;3.60;;;3.00;;
24335;SDS011;33098;52.400;16.880;2023-05-10T15:37:37;5.80;;;3.20;;
24335;SDS011;33098;52.400;16.880;2023-05-10T15:40:10;5.60;;;2.70;;
24335;SDS011;33098;52.400;16.880;2023-05-10T15:42:40;3.90;;;2.90;;
24335;SDS011;33098;52.400;16.880;2023-05-10T15:45:10;3.30;;;3.00;;